Bei Facebook empfehlenBei Twitter postenGoogle plusPinterest

Das Wetter im Erzgebirge am 21.06.2015

Wetter und Klima am 21.06.2015 Holzhau im Erzgebirge (630m ü.NN)
Letzte gemessene Temperatur und Uhrzeit der Messung23:45:00 Uhr9.20 °C
Temperatur (Maximum / Höchstwert) und Uhrzeit der Messung15:30:00 Uhr17.30 °C
Temperatur (Minimum / Tiefstwert) und Uhrzeit der Messung06:15:007.80 °C
Errechneter Absolutwert der Temperaturschwankungen zwischen Tmin und Tmax des Tages9.50 K
Errechnete Tagesmitteltemperatur11.61250 °C
Gesamt - Niederschlag des Tages (in flüssiger Form)3.11 Liter / m²
Luftdruck (Maximum / Höchstwert) und Zeitpunkt der Messung00:00:00 Uhr1016.20 hPa
Luftdruck (Minimum / Tiefstwert) und Zeitpunkt der Messung23:45:00 Uhr1012.90 hPa
Errechneter Absolutwert der Luftdruckschwankungen des Tages3.30 hPa
Höchste gemessene Windgeschwindigkeit und Uhrzeit der Messung14:45:00 Uhr7.56 km/h
Errechnete Windhäufigkeit in Relation zu den Messwerten des Tages5.20833 %
Niedrigste Windkühle (Windchill) und Zeitpunkt der Messung06:15:00 Uhr7.80 °C
Taupunkt (Maximum / Höchstwert) und Uhrzeit der Messung10:30:00 Uhr10.70 °C
Taupunkt (Minimum / Tiefstwert) und Uhrzeit der Messung22:00:006.70 °C
Anzahl der automatisch eingelesenen Messwerte 96

Detaillierte Wetter- und Klima- Messwerte für den 21.06.2015 in Holzhau im Erzgebirge (630m ü.NN)
ZeitTemperaturLuftdruckRel. LuftfeuchteWindWindrichtungWindchillTaupunktNiederschlag l/m²
23:45:009.20 °C1012.90 hPa87.00 %7.20 °C3.11
23:30:009.30 °C1013.00 hPa86.00 %7.10 °C3.11
23:15:009.40 °C1013.00 hPa85.00 %7.00 °C3.11
23:00:009.50 °C1013.10 hPa84.00 %6.90 °C3.11
22:45:009.80 °C1013.10 hPa82.00 %6.90 °C3.11
22:30:009.90 °C1013.30 hPa82.00 %7.00 °C3.11
22:15:0010.10 °C1013.40 hPa81.00 %7.00 °C3.11
22:00:0010.00 °C1013.40 hPa80.00 %6.70 °C3.11
21:45:0010.40 °C1013.50 hPa78.00 %6.70 °C3.11
21:30:0011.20 °C1013.40 hPa77.00 %7.30 °C3.11
21:15:0011.60 °C1013.40 hPa76.00 %7.50 °C3.11
21:00:0011.90 °C1013.40 hPa75.00 %7.60 °C3.11
20:45:0012.30 °C1013.50 hPa74.00 %7.80 °C3.11
20:30:0012.50 °C1013.40 hPa73.00 %7.80 °C3.11
20:15:0012.60 °C1013.30 hPa72.00 %7.70 °C3.11
20:00:0012.70 °C1013.40 hPa70.00 %7.40 °C3.11
19:45:0012.90 °C1013.40 hPa69.00 %4.68 km/hSSW12.90 °C7.40 °C3.11
19:30:0013.40 °C1013.50 hPa67.00 %7.40 °C3.11
19:15:0013.80 °C1013.50 hPa66.00 %7.60 °C3.11
19:00:0013.80 °C1013.60 hPa66.00 %7.60 °C3.11
18:45:0014.20 °C1013.50 hPa64.00 %7.50 °C3.11
18:30:0014.60 °C1013.50 hPa63.00 %3.24 km/hW14.60 °C7.60 °C3.11
18:15:0015.10 °C1013.70 hPa60.00 %4.68 km/hWSW15.10 °C7.40 °C3.11
18:00:0015.60 °C1013.50 hPa60.00 %7.90 °C3.11
17:45:0015.80 °C1013.70 hPa59.00 %7.80 °C3.11
17:30:0015.90 °C1013.70 hPa60.00 %8.20 °C3.11
17:15:0015.80 °C1013.80 hPa59.00 %7.80 °C3.11
17:00:0015.90 °C1014.00 hPa58.00 %7.70 °C3.11
16:45:0015.90 °C1014.10 hPa59.00 %7.90 °C3.11
16:30:0015.10 °C1014.20 hPa61.00 %3.60 km/hW15.10 °C7.60 °C3.11
16:15:0014.80 °C1014.30 hPa60.00 %7.10 °C3.11
16:00:0015.80 °C1014.20 hPa56.00 %7.00 °C3.11
15:45:0016.90 °C1014.20 hPa55.00 %7.80 °C3.11
15:30:0017.30 °C1014.20 hPa55.00 %8.20 °C3.11
15:15:0016.00 °C1014.40 hPa60.00 %8.20 °C3.11
15:00:0015.40 °C1014.30 hPa57.00 %6.90 °C3.11
14:45:0016.70 °C1014.40 hPa55.00 %7.56 km/hSSW16.90 °C7.60 °C2.59
14:30:0017.10 °C1014.50 hPa56.00 %8.30 °C2.59
14:15:0016.80 °C1014.50 hPa60.00 %9.00 °C2.59
14:00:0016.10 °C1014.50 hPa61.00 %8.60 °C2.59
13:45:0016.10 °C1014.70 hPa60.00 %8.30 °C2.59
13:30:0016.70 °C1014.70 hPa63.00 %9.60 °C2.59
13:15:0015.80 °C1015.00 hPa68.00 %9.90 °C2.59
13:00:0014.90 °C1014.80 hPa69.00 %9.30 °C2.59
12:45:0014.50 °C1014.90 hPa68.00 %8.70 °C2.59
12:30:0015.60 °C1014.90 hPa64.00 %8.80 °C2.59
12:15:0015.70 °C1015.00 hPa65.00 %9.10 °C2.59
12:00:0014.90 °C1015.00 hPa72.00 %9.90 °C2.59
11:45:0014.30 °C1015.30 hPa70.00 %8.90 °C2.59
11:30:0015.60 °C1015.00 hPa70.00 %10.20 °C2.59
11:15:0014.40 °C1015.30 hPa73.00 %9.60 °C2.59
11:00:0014.90 °C1015.40 hPa75.00 %10.50 °C2.59
10:45:0015.00 °C1015.50 hPa75.00 %10.60 °C2.59
10:30:0013.90 °C1015.40 hPa81.00 %10.70 °C2.59
10:15:0012.90 °C1015.60 hPa83.00 %10.10 °C2.59
10:00:0012.10 °C1015.80 hPa86.00 %9.80 °C2.59
09:45:0011.50 °C1015.70 hPa87.00 %9.40 °C2.59
09:30:0011.50 °C1015.90 hPa89.00 %9.80 °C2.59
09:15:0011.30 °C1015.70 hPa92.00 %10.00 °C2.59
09:00:0010.40 °C1015.80 hPa93.00 %9.30 °C2.59
08:45:009.60 °C1015.70 hPa93.00 %8.50 °C2.59
08:30:009.40 °C1015.90 hPa93.00 %8.30 °C2.59
08:15:008.30 °C1015.60 hPa93.00 %7.20 °C2.59
08:00:008.20 °C1015.80 hPa93.00 %7.10 °C2.59
07:45:008.20 °C1015.70 hPa93.00 %7.10 °C2.59
07:30:008.30 °C1015.70 hPa93.00 %7.20 °C2.59
07:15:008.30 °C1015.70 hPa93.00 %7.20 °C2.59
07:00:007.90 °C1015.70 hPa93.00 %6.80 °C2.59
06:45:007.90 °C1015.60 hPa93.00 %6.80 °C2.59
06:30:007.90 °C1015.50 hPa93.00 %6.80 °C2.59
06:15:007.80 °C1015.40 hPa93.00 %6.70 °C2.59
06:00:007.80 °C1015.40 hPa93.00 %6.70 °C2.59
05:45:007.80 °C1015.40 hPa93.00 %6.70 °C2.59
05:30:007.80 °C1015.70 hPa93.00 %6.70 °C2.59
05:15:007.80 °C1015.60 hPa93.00 %6.70 °C2.59
05:00:007.80 °C1015.50 hPa93.00 %6.70 °C2.59
04:45:007.80 °C1015.40 hPa93.00 %6.70 °C2.59
04:30:007.80 °C1015.40 hPa93.00 %6.70 °C2.59
04:15:007.80 °C1015.60 hPa93.00 %6.70 °C2.59
04:00:007.80 °C1015.60 hPa93.00 %6.70 °C2.59
03:45:007.80 °C1015.70 hPa93.00 %6.70 °C2.59
03:30:007.80 °C1015.90 hPa93.00 %6.70 °C2.59
03:15:007.80 °C1015.90 hPa93.00 %6.70 °C2.59
03:00:007.80 °C1015.90 hPa93.00 %6.70 °C2.59
02:45:007.80 °C1015.90 hPa93.00 %6.70 °C2.07
02:30:007.90 °C1016.10 hPa93.00 %6.80 °C0.52
02:15:007.90 °C1016.00 hPa93.00 %6.80 °C 
02:00:008.10 °C1016.00 hPa93.00 %7.00 °C 
01:45:008.10 °C1016.00 hPa93.00 %7.00 °C 
01:30:008.10 °C1016.00 hPa92.00 %6.90 °C 
01:15:008.10 °C1016.10 hPa92.00 %6.90 °C 
01:00:008.10 °C1016.10 hPa92.00 %6.90 °C 
00:45:008.10 °C1016.00 hPa92.00 %6.90 °C 
00:30:008.10 °C1016.10 hPa92.00 %6.90 °C 
00:15:008.10 °C1016.00 hPa92.00 %6.90 °C 
00:00:008.10 °C1016.20 hPa92.00 %6.90 °C 

Permanenter Link zu dieser Seite: Wetter im Erzgebirge am 21.06.2015
Performance-Info: Die Erstellung der Seite / Statistik(en) / Tabelle(n) erforderte 5 Datenbankserver-Abfrage(n) und dauerte 123 Millisekunden. (Dieser Messwert ist von der Gesamt-Auslastung des Servers abhängig.)
Erzgebirge - Wetter | Erzgebirge - Wetter (Mobilgeräte) | Komplette Klimadatenbank